Time;durP1;ratioP1;P1;durP2;ratioP2;P2;SDS_P1;SDS_P2;PMS_P1;PMS_P2;Temp;Humidity;BMP_temperature;BMP_pressure;BME280_temperature;BME280_humidity;BME280_pressure;Samples;Min_cycle;Max_cycle;Signal;HPM_P1;HPM_P2
2022/01/14 00:01:41;;;;;;;13.67;6.00;;;;;;;;;;6135093;28;20234;-66
2022/01/14 00:05:01;;;;;;;9.80;5.23;;;;;;;;;;6136022;28;20619;-67
2022/01/14 00:08:22;;;;;;;18.20;7.13;;;;;;;;;;6136190;28;20326;-67
2022/01/14 00:11:49;;;;;;;15.17;6.40;;;;;;;;;;6143048;28;20603;-66
2022/01/14 00:15:24;;;;;;;12.83;5.50;;;;;;;;;;6134849;28;20278;-68
2022/01/14 00:18:46;;;;;;;14.50;6.17;;;;;;;;;;6136166;28;20243;-66
2022/01/14 00:22:10;;;;;;;20.80;6.27;;;;;;;;;;6133456;28;20262;-66
2022/01/14 00:33:00;;;;;;;19.53;5.93;;;;;;;;;;6123496;28;20232;-66
2022/01/14 00:36:22;;;;;;;11.67;5.40;;;;;;;;;;6101286;28;20858;-66
2022/01/14 00:39:43;;;;;;;11.63;6.03;;;;;;;;;;6127862;28;20231;-66
2022/01/14 00:43:04;;;;;;;16.67;6.73;;;;;;;;;;6137758;28;20243;-65
2022/01/14 00:46:24;;;;;;;18.37;6.17;;;;;;;;;;6131252;28;20232;-66
2022/01/14 00:49:45;;;;;;;11.97;6.10;;;;;;;;;;6134300;28;20804;-63
2022/01/14 00:53:07;;;;;;;15.07;7.17;;;;;;;;;;6128434;28;20243;-66
2022/01/14 00:56:32;;;;;;;10.50;6.60;;;;;;;;;;6131704;28;20497;-66
2022/01/14 00:59:52;;;;;;;17.13;7.13;;;;;;;;;;6133081;28;20231;-66
2022/01/14 01:03:12;;;;;;;11.77;5.63;;;;;;;;;;6129682;28;20235;-67
2022/01/14 01:06:36;;;;;;;14.83;7.10;;;;;;;;;;6132369;28;20322;-65
2022/01/14 01:09:58;;;;;;;8.93;5.53;;;;;;;;;;6136065;28;20235;-65
2022/01/14 01:13:22;;;;;;;14.90;6.73;;;;;;;;;;6122467;28;20534;-67
2022/01/14 01:16:43;;;;;;;15.87;6.67;;;;;;;;;;6137546;28;20240;-66
2022/01/14 01:20:10;;;;;;;13.63;7.30;;;;;;;;;;6116250;28;20235;-66
2022/01/14 01:23:31;;;;;;;17.10;7.00;;;;;;;;;;6135051;28;20231;-66
2022/01/14 01:27:04;;;;;;;14.03;6.37;;;;;;;;;;6134204;28;20330;-66
2022/01/14 01:30:50;;;;;;;12.37;5.30;;;;;;;;;;6123296;28;20252;-65
2022/01/14 01:34:11;;;;;;;8.70;5.73;;;;;;;;;;6133854;28;20527;-66
2022/01/14 01:37:32;;;;;;;9.70;5.77;;;;;;;;;;6120182;28;20232;-66
2022/01/14 01:40:52;;;;;;;8.17;5.43;;;;;;;;;;6134050;28;20231;-64
2022/01/14 01:44:16;;;;;;;12.27;6.47;;;;;;;;;;6127513;28;20236;-65
2022/01/14 01:47:37;;;;;;;11.50;5.70;;;;;;;;;;6131559;28;20506;-65
2022/01/14 01:50:58;;;;;;;12.20;7.80;;;;;;;;;;6126455;28;20227;-65
2022/01/14 01:54:20;;;;;;;10.20;5.87;;;;;;;;;;6127922;28;20227;-66
2022/01/14 01:57:42;;;;;;;15.90;6.03;;;;;;;;;;6123715;28;20295;-66
2022/01/14 02:01:05;;;;;;;10.43;5.23;;;;;;;;;;6107981;28;20215;-66
2022/01/14 02:04:26;;;;;;;10.83;5.00;;;;;;;;;;6131020;28;20239;-66
2022/01/14 02:07:47;;;;;;;7.67;4.30;;;;;;;;;;6129732;28;20235;-66
2022/01/14 02:11:07;;;;;;;11.40;5.17;;;;;;;;;;6130474;28;20239;-66
2022/01/14 02:14:51;;;;;;;10.67;4.80;;;;;;;;;;6134437;28;20227;-66
2022/01/14 02:18:28;;;;;;;9.33;4.13;;;;;;;;;;6129860;28;20239;-65
2022/01/14 02:25:29;;;;;;;12.67;4.63;;;;;;;;;;6126664;28;20235;-65
2022/01/14 02:28:50;;;;;;;7.00;4.03;;;;;;;;;;6135361;28;20231;-66
2022/01/14 02:32:11;;;;;;;12.17;5.07;;;;;;;;;;6130367;28;20243;-66
2022/01/14 02:35:31;;;;;;;11.67;4.67;;;;;;;;;;6133497;28;20227;-65
2022/01/14 02:38:54;;;;;;;8.10;4.83;;;;;;;;;;6132851;28;20228;-66
2022/01/14 02:42:14;;;;;;;8.80;4.50;;;;;;;;;;6127096;28;20258;-66
2022/01/14 02:45:35;;;;;;;9.37;4.33;;;;;;;;;;6120281;28;20239;-66
2022/01/14 02:48:55;;;;;;;7.17;4.60;;;;;;;;;;6129464;28;20228;-66
2022/01/14 02:52:16;;;;;;;8.90;4.57;;;;;;;;;;6130638;28;20258;-66
2022/01/14 02:55:43;;;;;;;11.77;5.53;;;;;;;;;;6132549;28;20913;-66
2022/01/14 02:59:03;;;;;;;12.13;5.00;;;;;;;;;;6129778;28;20224;-66
2022/01/14 03:02:24;;;;;;;8.50;4.40;;;;;;;;;;6127451;28;20798;-66
2022/01/14 03:05:45;;;;;;;10.00;3.70;;;;;;;;;;6129849;28;20330;-66
2022/01/14 03:09:06;;;;;;;6.10;4.57;;;;;;;;;;6127796;28;20524;-66
2022/01/14 03:12:28;;;;;;;12.97;5.50;;;;;;;;;;6133429;28;20456;-66
2022/01/14 03:15:49;;;;;;;11.63;5.23;;;;;;;;;;6129234;28;20235;-66
2022/01/14 03:19:15;;;;;;;27.83;9.30;;;;;;;;;;6131684;28;20232;-66
2022/01/14 03:22:36;;;;;;;5.87;4.43;;;;;;;;;;6133992;28;20249;-66
2022/01/14 03:25:59;;;;;;;15.70;5.83;;;;;;;;;;6121402;28;20231;-64
2022/01/14 03:29:21;;;;;;;10.30;5.30;;;;;;;;;;6128063;28;20263;-65
2022/01/14 03:32:42;;;;;;;9.40;5.00;;;;;;;;;;6129069;28;20243;-66
2022/01/14 03:36:03;;;;;;;11.93;5.13;;;;;;;;;;6116198;28;20236;-65
2022/01/14 03:39:23;;;;;;;13.43;6.87;;;;;;;;;;6124399;28;20705;-66
2022/01/14 03:42:44;;;;;;;7.33;4.70;;;;;;;;;;6132836;28;20521;-66
2022/01/14 03:46:05;;;;;;;17.40;7.57;;;;;;;;;;6130374;28;20228;-66
2022/01/14 03:49:26;;;;;;;11.70;5.33;;;;;;;;;;6127740;28;20228;-66
2022/01/14 03:52:47;;;;;;;13.77;6.60;;;;;;;;;;6127895;28;20236;-65
2022/01/14 03:56:07;;;;;;;11.70;6.37;;;;;;;;;;6118020;28;20247;-66
2022/01/14 03:59:28;;;;;;;12.50;5.87;;;;;;;;;;6124920;28;20231;-65
2022/01/14 04:02:50;;;;;;;8.33;5.63;;;;;;;;;;6128655;28;20235;-65
2022/01/14 04:06:11;;;;;;;13.50;6.60;;;;;;;;;;6130966;28;20304;-66
2022/01/14 04:09:36;;;;;;;11.43;7.07;;;;;;;;;;6131962;28;20247;-66
2022/01/14 04:13:02;;;;;;;12.07;5.93;;;;;;;;;;6131968;28;20318;-66
2022/01/14 04:16:24;;;;;;;13.03;6.30;;;;;;;;;;6128465;28;20231;-67
2022/01/14 04:19:45;;;;;;;13.47;6.90;;;;;;;;;;6133740;28;20255;-65
2022/01/14 04:23:06;;;;;;;16.10;5.90;;;;;;;;;;6133143;28;20649;-66
2022/01/14 04:26:26;;;;;;;12.73;5.73;;;;;;;;;;6131752;28;20251;-65
2022/01/14 04:29:47;;;;;;;8.67;5.27;;;;;;;;;;6134309;28;20239;-65
2022/01/14 04:33:08;;;;;;;15.57;6.80;;;;;;;;;;6134732;28;20625;-66
2022/01/14 04:36:29;;;;;;;13.03;7.00;;;;;;;;;;6135462;28;20255;-67
2022/01/14 04:39:50;;;;;;;18.70;7.47;;;;;;;;;;6129056;28;20231;-66
2022/01/14 04:43:12;;;;;;;15.60;6.93;;;;;;;;;;6133134;28;20223;-66
2022/01/14 04:50:10;;;;;;;12.17;5.93;;;;;;;;;;6123955;28;20232;-66
2022/01/14 04:53:32;;;;;;;8.93;5.77;;;;;;;;;;6135202;28;20235;-66
2022/01/14 04:57:00;;;;;;;12.70;5.77;;;;;;;;;;6121521;28;20228;-66
2022/01/14 05:00:22;;;;;;;11.83;6.40;;;;;;;;;;6125173;28;20231;-65
2022/01/14 05:03:42;;;;;;;21.23;8.73;;;;;;;;;;6123014;28;20235;-64
2022/01/14 05:07:03;;;;;;;17.00;7.33;;;;;;;;;;6134673;28;20714;-66
2022/01/14 05:10:35;;;;;;;10.23;4.97;;;;;;;;;;6130842;28;20258;-66
2022/01/14 05:13:56;;;;;;;8.53;5.03;;;;;;;;;;6136187;28;20227;-66
2022/01/14 05:17:16;;;;;;;15.10;7.23;;;;;;;;;;6139913;28;20239;-66
2022/01/14 05:20:37;;;;;;;10.47;5.13;;;;;;;;;;6124901;28;20242;-66
2022/01/14 05:23:57;;;;;;;10.23;5.40;;;;;;;;;;6129199;28;20242;-66
2022/01/14 05:27:19;;;;;;;12.73;4.90;;;;;;;;;;6133535;28;20239;-65
2022/01/14 05:30:40;;;;;;;9.07;5.03;;;;;;;;;;6122040;28;20266;-66
2022/01/14 05:34:00;;;;;;;10.03;4.53;;;;;;;;;;6125682;28;20621;-67
2022/01/14 05:37:21;;;;;;;11.83;5.77;;;;;;;;;;6132762;28;20343;-65
2022/01/14 05:40:41;;;;;;;11.47;5.13;;;;;;;;;;6134304;28;20625;-66
2022/01/14 05:44:04;;;;;;;12.53;4.17;;;;;;;;;;6135063;28;20231;-67
2022/01/14 05:47:25;;;;;;;10.27;4.43;;;;;;;;;;6134059;28;20234;-66
2022/01/14 05:50:46;;;;;;;13.03;5.10;;;;;;;;;;6108886;28;20571;-66
2022/01/14 05:54:06;;;;;;;8.77;4.07;;;;;;;;;;6123428;28;20239;-66
2022/01/14 05:57:27;;;;;;;12.50;4.63;;;;;;;;;;6120733;28;20228;-66
2022/01/14 06:00:49;;;;;;;11.47;4.27;;;;;;;;;;6127675;28;20239;-65
2022/01/14 06:04:10;;;;;;;10.70;4.60;;;;;;;;;;6114396;28;20243;-66
2022/01/14 06:07:31;;;;;;;10.00;4.63;;;;;;;;;;6130037;28;20322;-66
2022/01/14 06:10:51;;;;;;;14.83;5.07;;;;;;;;;;6119699;28;20781;-66
2022/01/14 06:14:12;;;;;;;7.97;4.53;;;;;;;;;;6130611;28;20222;-65
2022/01/14 06:17:38;;;;;;;15.40;5.03;;;;;;;;;;6133731;28;20635;-66
2022/01/14 06:20:58;;;;;;;10.07;4.33;;;;;;;;;;6134550;28;20235;-65
2022/01/14 06:24:19;;;;;;;10.10;4.30;;;;;;;;;;6131334;28;20319;-67
2022/01/14 06:27:39;;;;;;;14.03;4.63;;;;;;;;;;6130049;28;20270;-65
2022/01/14 06:31:00;;;;;;;13.73;4.00;;;;;;;;;;6125970;28;20239;-66
2022/01/14 06:34:22;;;;;;;11.33;4.80;;;;;;;;;;6130278;28;20232;-67
2022/01/14 06:37:43;;;;;;;13.17;4.90;;;;;;;;;;6123394;28;20243;-65
2022/01/14 06:41:04;;;;;;;14.40;4.60;;;;;;;;;;6123105;28;20537;-66
2022/01/14 06:44:24;;;;;;;16.17;4.33;;;;;;;;;;6123027;28;20802;-67
2022/01/14 06:47:45;;;;;;;19.97;6.47;;;;;;;;;;6127783;28;20232;-66
2022/01/14 06:51:12;;;;;;;10.40;4.03;;;;;;;;;;6129376;28;20267;-65
2022/01/14 06:54:33;;;;;;;13.37;5.17;;;;;;;;;;6127609;28;20238;-65
2022/01/14 06:57:54;;;;;;;15.50;4.10;;;;;;;;;;6127681;28;20235;-66
2022/01/14 07:01:14;;;;;;;14.17;5.27;;;;;;;;;;6128122;28;21517;-65
2022/01/14 07:04:35;;;;;;;10.97;4.20;;;;;;;;;;6111248;28;20251;-65
2022/01/14 07:07:57;;;;;;;20.10;4.83;;;;;;;;;;6124829;28;20235;-66
2022/01/14 07:11:18;;;;;;;11.60;4.17;;;;;;;;;;6120903;28;20239;-67
2022/01/14 07:14:39;;;;;;;14.87;5.30;;;;;;;;;;6122700;28;20239;-66
2022/01/14 07:17:59;;;;;;;16.00;4.70;;;;;;;;;;6126020;28;20266;-67
2022/01/14 07:21:20;;;;;;;15.10;4.77;;;;;;;;;;6129854;28;20235;-65
2022/01/14 07:24:42;;;;;;;14.27;4.77;;;;;;;;;;6119501;28;20361;-68
2022/01/14 07:28:03;;;;;;;15.00;4.73;;;;;;;;;;6120563;28;20843;-68
2022/01/14 07:31:23;;;;;;;16.93;4.97;;;;;;;;;;6121221;28;20251;-66
2022/01/14 07:34:45;;;;;;;18.47;6.37;;;;;;;;;;6126736;28;20236;-67
2022/01/14 07:38:06;;;;;;;13.50;5.80;;;;;;;;;;6129263;28;20616;-66
2022/01/14 07:41:27;;;;;;;17.47;5.33;;;;;;;;;;6131937;28;20298;-67
2022/01/14 07:44:48;;;;;;;12.43;5.37;;;;;;;;;;6136440;28;20235;-69
2022/01/14 07:48:08;;;;;;;16.00;6.80;;;;;;;;;;6135954;28;20238;-68
2022/01/14 07:51:29;;;;;;;15.33;5.70;;;;;;;;;;6131541;28;20231;-67
2022/01/14 07:54:49;;;;;;;15.77;6.03;;;;;;;;;;6134247;28;20251;-67
2022/01/14 07:58:11;;;;;;;20.23;4.83;;;;;;;;;;6135599;28;20656;-66
2022/01/14 08:01:33;;;;;;;17.40;5.03;;;;;;;;;;6133126;28;20663;-66
2022/01/14 08:04:54;;;;;;;19.00;5.80;;;;;;;;;;6127008;28;20328;-67
2022/01/14 08:08:15;;;;;;;19.23;5.10;;;;;;;;;;6132139;28;20263;-67
2022/01/14 08:11:35;;;;;;;16.90;5.37;;;;;;;;;;6136378;28;20231;-66
2022/01/14 08:14:58;;;;;;;13.40;4.17;;;;;;;;;;6133974;28;20315;-67
2022/01/14 08:18:18;;;;;;;16.87;4.73;;;;;;;;;;6134945;28;20322;-66
2022/01/14 08:21:39;;;;;;;14.10;4.53;;;;;;;;;;6131429;28;20257;-66
2022/01/14 08:24:59;;;;;;;16.60;6.20;;;;;;;;;;6132419;28;20428;-67
2022/01/14 08:28:20;;;;;;;16.87;4.77;;;;;;;;;;6129675;28;20732;-66
2022/01/14 08:31:42;;;;;;;13.73;3.97;;;;;;;;;;6135345;28;20314;-65
2022/01/14 08:35:03;;;;;;;23.93;5.97;;;;;;;;;;6127293;28;20235;-66
2022/01/14 08:38:23;;;;;;;16.00;4.93;;;;;;;;;;6130344;28;20237;-66
2022/01/14 08:41:44;;;;;;;13.53;5.20;;;;;;;;;;6133945;28;20262;-65
2022/01/14 08:45:05;;;;;;;11.63;4.80;;;;;;;;;;6129332;28;20235;-68
2022/01/14 08:48:27;;;;;;;20.37;5.40;;;;;;;;;;6120497;28;20232;-68
2022/01/14 08:51:49;;;;;;;22.47;6.77;;;;;;;;;;6116792;28;20239;-68
2022/01/14 08:55:10;;;;;;;18.80;6.83;;;;;;;;;;6120263;28;20234;-67
2022/01/14 08:58:30;;;;;;;25.43;6.27;;;;;;;;;;6112418;28;20240;-66
2022/01/14 09:01:51;;;;;;;13.10;6.23;;;;;;;;;;6115746;28;20774;-67
2022/01/14 09:05:13;;;;;;;15.93;6.30;;;;;;;;;;6132878;28;20239;-67
2022/01/14 09:08:34;;;;;;;20.43;6.10;;;;;;;;;;6137754;28;20235;-67
2022/01/14 09:11:55;;;;;;;19.93;6.93;;;;;;;;;;6139612;28;20334;-66
2022/01/14 09:15:16;;;;;;;23.10;7.03;;;;;;;;;;6134037;28;20231;-67
2022/01/14 09:18:37;;;;;;;20.20;7.17;;;;;;;;;;6139944;28;20326;-67
2022/01/14 09:21:59;;;;;;;17.23;7.60;;;;;;;;;;6130812;28;20239;-66
2022/01/14 09:25:20;;;;;;;14.57;7.60;;;;;;;;;;6128681;28;20625;-66
2022/01/14 09:28:40;;;;;;;14.47;7.27;;;;;;;;;;6133656;28;20516;-66
2022/01/14 09:32:01;;;;;;;14.13;6.63;;;;;;;;;;6125337;28;20725;-67
2022/01/14 09:35:24;;;;;;;21.37;8.80;;;;;;;;;;6136970;28;20592;-67
2022/01/14 09:38:45;;;;;;;19.40;8.67;;;;;;;;;;6137611;28;20681;-66
2022/01/14 09:42:07;;;;;;;17.87;7.30;;;;;;;;;;6133828;28;20227;-67
2022/01/14 09:45:29;;;;;;;14.07;7.57;;;;;;;;;;6139775;28;20231;-67
2022/01/14 09:48:50;;;;;;;17.10;6.80;;;;;;;;;;6135718;28;20243;-67
2022/01/14 09:52:11;;;;;;;15.33;7.43;;;;;;;;;;6137313;28;20240;-67
2022/01/14 09:55:33;;;;;;;16.23;7.07;;;;;;;;;;6141331;28;20230;-67
2022/01/14 09:58:54;;;;;;;15.57;7.87;;;;;;;;;;6128940;28;20235;-67
2022/01/14 10:02:30;;;;;;;12.30;6.33;;;;;;;;;;6134609;28;20239;-64
2022/01/14 10:05:52;;;;;;;18.87;7.60;;;;;;;;;;6129348;28;20235;-66
2022/01/14 10:09:16;;;;;;;18.43;7.77;;;;;;;;;;6139469;28;20236;-67
2022/01/14 10:12:37;;;;;;;12.40;7.37;;;;;;;;;;6137829;28;20235;-67
2022/01/14 10:16:02;;;;;;;17.43;9.07;;;;;;;;;;6129220;28;20323;-67
2022/01/14 10:19:23;;;;;;;23.10;8.13;;;;;;;;;;6126886;28;20570;-67
2022/01/14 10:22:45;;;;;;;17.87;8.33;;;;;;;;;;6133126;28;20237;-66
2022/01/14 10:26:05;;;;;;;18.87;8.07;;;;;;;;;;6134117;28;20307;-67
2022/01/14 10:29:28;;;;;;;10.70;6.40;;;;;;;;;;6128017;28;20628;-67
2022/01/14 10:32:53;;;;;;;21.00;8.13;;;;;;;;;;6131283;28;20263;-69
2022/01/14 10:36:20;;;;;;;14.20;8.00;;;;;;;;;;6124448;28;20614;-68
2022/01/14 10:39:45;;;;;;;11.27;6.97;;;;;;;;;;6136994;28;20231;-68
2022/01/14 10:43:07;;;;;;;8.63;6.40;;;;;;;;;;6132278;28;20232;-67
2022/01/14 10:46:30;;;;;;;13.20;8.30;;;;;;;;;;6128228;28;20329;-68
2022/01/14 10:49:51;;;;;;;11.80;6.87;;;;;;;;;;6132924;28;20833;-67
2022/01/14 10:53:12;;;;;;;15.33;7.80;;;;;;;;;;6139529;28;20637;-67
2022/01/14 10:56:33;;;;;;;13.67;8.23;;;;;;;;;;6133341;28;20251;-67
2022/01/14 10:59:54;;;;;;;12.40;8.53;;;;;;;;;;6129727;28;20235;-66
2022/01/14 11:03:17;;;;;;;15.37;8.30;;;;;;;;;;6131957;28;20606;-65
2022/01/14 11:06:40;;;;;;;13.10;7.73;;;;;;;;;;6129805;28;20231;-65
2022/01/14 11:10:02;;;;;;;13.03;7.63;;;;;;;;;;6127794;28;20231;-66
2022/01/14 11:13:22;;;;;;;14.43;8.73;;;;;;;;;;6127163;28;20263;-66
2022/01/14 11:16:43;;;;;;;13.07;7.60;;;;;;;;;;6137540;28;20496;-66
2022/01/14 11:20:07;;;;;;;14.73;8.10;;;;;;;;;;6128763;28;20322;-65
2022/01/14 11:23:27;;;;;;;11.17;6.87;;;;;;;;;;6139642;28;20555;-65
2022/01/14 11:26:49;;;;;;;11.00;7.13;;;;;;;;;;6132977;28;20236;-66
2022/01/14 11:30:12;;;;;;;8.63;6.50;;;;;;;;;;6120878;28;20231;-65
2022/01/14 11:33:40;;;;;;;7.53;6.77;;;;;;;;;;6118009;28;20254;-65
2022/01/14 11:37:03;;;;;;;12.33;7.00;;;;;;;;;;6138679;28;20230;-66
2022/01/14 11:40:23;;;;;;;7.43;5.97;;;;;;;;;;6138457;28;20242;-66
2022/01/14 11:43:45;;;;;;;9.43;6.47;;;;;;;;;;6133280;28;20227;-65
2022/01/14 11:47:06;;;;;;;6.83;5.00;;;;;;;;;;6123989;28;20263;-64
2022/01/14 11:50:46;;;;;;;8.83;6.03;;;;;;;;;;6111299;28;20998;-66
2022/01/14 11:54:09;;;;;;;10.10;5.33;;;;;;;;;;6131185;28;20235;-66
2022/01/14 11:57:45;;;;;;;6.63;5.17;;;;;;;;;;6136190;28;20669;-67
2022/01/14 12:01:06;;;;;;;7.60;4.87;;;;;;;;;;6128732;28;20228;-66
2022/01/14 12:04:46;;;;;;;6.90;5.47;;;;;;;;;;6135135;28;20224;-65
2022/01/14 12:08:17;;;;;;;5.73;4.17;;;;;;;;;;6137460;28;20330;-65
2022/01/14 12:11:39;;;;;;;4.50;3.83;;;;;;;;;;6135584;28;20234;-65
2022/01/14 12:15:01;;;;;;;6.60;4.20;;;;;;;;;;6139121;28;20235;-64
2022/01/14 12:18:36;;;;;;;5.77;3.90;;;;;;;;;;6130913;28;20231;-67
2022/01/14 12:21:58;;;;;;;4.00;3.30;;;;;;;;;;6141587;28;20234;-65
2022/01/14 12:25:19;;;;;;;9.10;5.47;;;;;;;;;;6136503;28;20235;-66
2022/01/14 12:28:41;;;;;;;6.80;3.60;;;;;;;;;;6133449;28;20255;-65
2022/01/14 12:32:02;;;;;;;5.30;3.63;;;;;;;;;;6129013;28;20236;-66
2022/01/14 12:35:30;;;;;;;4.70;2.93;;;;;;;;;;6130712;28;20690;-65
2022/01/14 12:38:51;;;;;;;3.40;2.20;;;;;;;;;;6133290;28;20267;-67
2022/01/14 12:42:12;;;;;;;3.90;3.27;;;;;;;;;;6117087;28;20236;-66
2022/01/14 12:45:38;;;;;;;2.57;2.27;;;;;;;;;;6132592;28;20732;-66
2022/01/14 12:48:59;;;;;;;7.83;4.13;;;;;;;;;;6130376;28;20234;-65
2022/01/14 12:52:30;;;;;;;2.00;1.83;;;;;;;;;;6135383;28;20235;-65
2022/01/14 12:55:50;;;;;;;3.73;2.50;;;;;;;;;;6134670;28;20227;-66
2022/01/14 12:59:15;;;;;;;3.17;2.87;;;;;;;;;;6144141;28;20235;-66
2022/01/14 13:02:37;;;;;;;10.83;7.33;;;;;;;;;;6136897;28;20227;-66
2022/01/14 13:05:59;;;;;;;12.40;7.27;;;;;;;;;;6132015;28;20258;-68
2022/01/14 13:09:21;;;;;;;7.77;4.40;;;;;;;;;;6133047;28;20314;-65
2022/01/14 13:12:43;;;;;;;7.43;5.03;;;;;;;;;;6133416;28;20498;-64
2022/01/14 13:16:06;;;;;;;7.00;4.53;;;;;;;;;;6130762;28;20250;-65
2022/01/14 13:19:30;;;;;;;5.07;3.53;;;;;;;;;;6134759;28;20279;-65
2022/01/14 13:22:51;;;;;;;3.67;2.40;;;;;;;;;;6124705;28;20512;-65
2022/01/14 13:26:12;;;;;;;5.33;2.33;;;;;;;;;;6132336;28;20263;-65
2022/01/14 13:29:36;;;;;;;2.60;2.40;;;;;;;;;;6136107;28;20240;-66
2022/01/14 13:32:58;;;;;;;5.13;2.47;;;;;;;;;;6128103;28;20265;-65
2022/01/14 13:36:20;;;;;;;3.10;2.80;;;;;;;;;;6134380;28;20236;-65
2022/01/14 13:39:43;;;;;;;3.90;2.93;;;;;;;;;;6132287;28;20645;-66
2022/01/14 13:43:06;;;;;;;3.20;2.70;;;;;;;;;;6132576;28;20227;-66
2022/01/14 13:46:32;;;;;;;4.30;2.27;;;;;;;;;;6132551;28;20228;-66
2022/01/14 13:50:14;;;;;;;8.50;3.10;;;;;;;;;;6135882;28;20242;-65
2022/01/14 13:53:36;;;;;;;7.03;3.63;;;;;;;;;;6126071;28;20231;-65
2022/01/14 13:57:07;;;;;;;6.03;3.57;;;;;;;;;;6128830;28;20609;-66
2022/01/14 14:00:30;;;;;;;4.53;2.37;;;;;;;;;;6136242;28;20235;-66
2022/01/14 14:03:54;;;;;;;7.00;2.53;;;;;;;;;;6117550;28;20239;-66
2022/01/14 14:07:18;;;;;;;12.40;3.93;;;;;;;;;;6134074;28;20234;-65
2022/01/14 14:18:04;;;;;;;2.50;2.20;;;;;;;;;;6132679;28;21888;-66
2022/01/14 14:21:28;;;;;;;4.13;1.93;;;;;;;;;;6125007;28;20235;-66
2022/01/14 14:24:56;;;;;;;4.43;2.10;;;;;;;;;;6135292;28;20417;-65
2022/01/14 14:28:25;;;;;;;4.40;2.37;;;;;;;;;;6128926;28;20239;-65
2022/01/14 14:31:45;;;;;;;4.10;1.93;;;;;;;;;;6127599;28;20235;-65
2022/01/14 14:35:08;;;;;;;3.33;2.53;;;;;;;;;;6129935;28;20235;-66
2022/01/14 14:38:29;;;;;;;3.10;1.93;;;;;;;;;;6140793;28;20502;-65
2022/01/14 14:41:50;;;;;;;4.93;2.17;;;;;;;;;;6128573;28;20240;-65
2022/01/14 14:45:12;;;;;;;5.37;2.13;;;;;;;;;;6131381;28;20580;-64
2022/01/14 14:48:33;;;;;;;8.30;3.07;;;;;;;;;;6126956;28;20720;-65
2022/01/14 14:51:53;;;;;;;4.47;2.60;;;;;;;;;;6116635;28;20491;-65
2022/01/14 14:55:15;;;;;;;8.40;3.07;;;;;;;;;;6120866;28;20585;-66
2022/01/14 14:58:37;;;;;;;9.93;3.10;;;;;;;;;;6130160;28;20228;-65
2022/01/14 15:01:58;;;;;;;6.83;2.47;;;;;;;;;;6125521;28;20231;-66
2022/01/14 15:05:19;;;;;;;14.03;5.10;;;;;;;;;;6129947;28;20220;-67
2022/01/14 15:08:40;;;;;;;7.67;4.17;;;;;;;;;;6129857;28;20555;-67
2022/01/14 15:12:03;;;;;;;7.27;2.70;;;;;;;;;;6112001;28;20240;-66
2022/01/14 15:15:36;;;;;;;7.57;2.73;;;;;;;;;;6126691;28;20223;-65
2022/01/14 15:18:58;;;;;;;8.93;3.60;;;;;;;;;;6128966;28;20223;-66
2022/01/14 15:22:20;;;;;;;15.03;3.80;;;;;;;;;;6131598;28;20239;-66
2022/01/14 15:25:41;;;;;;;12.50;5.40;;;;;;;;;;6126300;28;20262;-66
2022/01/14 15:29:01;;;;;;;12.67;5.57;;;;;;;;;;6113932;28;20264;-65
2022/01/14 15:32:22;;;;;;;10.70;5.13;;;;;;;;;;6132353;28;20247;-67
2022/01/14 15:35:44;;;;;;;13.97;4.63;;;;;;;;;;6131748;28;20565;-66
2022/01/14 15:39:04;;;;;;;12.83;6.27;;;;;;;;;;6127195;28;20231;-66
2022/01/14 15:42:25;;;;;;;16.27;8.00;;;;;;;;;;6126694;28;20877;-65
2022/01/14 15:45:46;;;;;;;10.17;4.83;;;;;;;;;;6129931;28;20800;-66
2022/01/14 15:49:06;;;;;;;14.13;3.93;;;;;;;;;;6130183;28;20228;-66
2022/01/14 15:52:28;;;;;;;15.20;5.40;;;;;;;;;;6116631;28;20525;-67
2022/01/14 15:55:51;;;;;;;11.80;5.93;;;;;;;;;;6139901;28;20235;-66
2022/01/14 15:59:12;;;;;;;15.50;4.60;;;;;;;;;;6124813;28;20322;-67
2022/01/14 16:02:32;;;;;;;15.00;5.53;;;;;;;;;;6128355;28;20240;-66
2022/01/14 16:05:53;;;;;;;9.47;3.60;;;;;;;;;;6129050;28;20243;-67
2022/01/14 16:09:15;;;;;;;12.30;2.83;;;;;;;;;;6128597;28;20228;-67
2022/01/14 16:12:38;;;;;;;9.13;3.87;;;;;;;;;;6128408;28;20231;-66
2022/01/14 16:16:00;;;;;;;10.53;3.33;;;;;;;;;;6138018;28;20503;-66
2022/01/14 16:19:21;;;;;;;13.70;4.30;;;;;;;;;;6129108;28;20235;-66
2022/01/14 16:22:42;;;;;;;12.77;5.20;;;;;;;;;;6127632;28;20219;-67
2022/01/14 16:26:04;;;;;;;10.90;5.43;;;;;;;;;;6134568;28;20334;-67
2022/01/14 16:29:25;;;;;;;22.93;13.53;;;;;;;;;;6134173;28;20231;-66
2022/01/14 16:32:47;;;;;;;18.63;10.63;;;;;;;;;;6136900;28;20338;-66
2022/01/14 16:36:08;;;;;;;17.07;6.83;;;;;;;;;;6135154;28;20231;-66
2022/01/14 16:39:28;;;;;;;17.30;10.70;;;;;;;;;;6131416;28;20227;-66
2022/01/14 16:42:52;;;;;;;19.20;9.20;;;;;;;;;;6130342;28;20239;-66
2022/01/14 16:46:14;;;;;;;19.10;7.23;;;;;;;;;;6133062;28;20322;-67
2022/01/14 16:49:36;;;;;;;16.23;5.23;;;;;;;;;;6125764;28;20232;-66
2022/01/14 16:52:56;;;;;;;18.77;6.27;;;;;;;;;;6119329;28;20240;-65
2022/01/14 16:56:16;;;;;;;16.80;4.83;;;;;;;;;;6132677;28;20239;-66
2022/01/14 16:59:38;;;;;;;16.17;4.70;;;;;;;;;;6124695;28;20239;-67
2022/01/14 17:03:01;;;;;;;29.93;13.07;;;;;;;;;;6131864;28;20960;-65
2022/01/14 17:06:22;;;;;;;16.23;10.40;;;;;;;;;;6115350;28;20826;-65
2022/01/14 17:09:44;;;;;;;24.13;10.90;;;;;;;;;;6135038;28;20242;-66
2022/01/14 17:13:05;;;;;;;20.63;7.37;;;;;;;;;;6125631;28;20235;-66
2022/01/14 17:16:26;;;;;;;20.83;4.90;;;;;;;;;;6135657;28;20235;-65
2022/01/14 17:19:47;;;;;;;14.83;6.50;;;;;;;;;;6136096;28;20231;-65
2022/01/14 17:23:09;;;;;;;14.80;5.53;;;;;;;;;;6125926;28;20621;-66
2022/01/14 17:26:31;;;;;;;13.80;5.40;;;;;;;;;;6135116;28;20325;-66
2022/01/14 17:29:51;;;;;;;15.47;5.63;;;;;;;;;;6131077;28;20234;-66
2022/01/14 17:33:13;;;;;;;15.93;6.43;;;;;;;;;;6129937;28;20724;-66
2022/01/14 17:36:34;;;;;;;37.03;21.03;;;;;;;;;;6131504;28;20228;-65
2022/01/14 17:39:54;;;;;;;33.70;22.07;;;;;;;;;;6134552;28;20243;-66
2022/01/14 17:43:27;;;;;;;18.70;10.53;;;;;;;;;;6128527;28;20235;-64
2022/01/14 17:46:48;;;;;;;18.13;7.60;;;;;;;;;;6123825;28;20243;-65
2022/01/14 17:50:11;;;;;;;26.03;14.07;;;;;;;;;;6125958;28;20267;-66
2022/01/14 17:53:32;;;;;;;29.90;15.40;;;;;;;;;;6127720;28;20235;-65
2022/01/14 17:56:55;;;;;;;24.53;10.93;;;;;;;;;;6130698;28;20243;-65
2022/01/14 18:00:16;;;;;;;23.40;9.07;;;;;;;;;;6115302;28;20243;-65
2022/01/14 18:03:36;;;;;;;21.73;11.93;;;;;;;;;;6122914;28;21039;-65
2022/01/14 18:06:58;;;;;;;19.90;9.17;;;;;;;;;;6136157;28;20248;-65
2022/01/14 18:10:19;;;;;;;34.83;19.30;;;;;;;;;;6132684;28;20231;-66
2022/01/14 18:13:47;;;;;;;36.30;18.97;;;;;;;;;;6133685;28;20231;-66
2022/01/14 18:17:08;;;;;;;29.27;9.60;;;;;;;;;;6134122;28;20234;-66
2022/01/14 18:20:28;;;;;;;25.00;10.93;;;;;;;;;;6133195;28;20240;-66
2022/01/14 18:23:50;;;;;;;21.63;8.87;;;;;;;;;;6129055;28;20604;-66
2022/01/14 18:27:12;;;;;;;19.47;8.27;;;;;;;;;;6123873;28;20232;-65
2022/01/14 18:30:32;;;;;;;20.37;5.63;;;;;;;;;;6123587;28;20239;-66
2022/01/14 18:33:52;;;;;;;19.87;5.03;;;;;;;;;;6124616;28;20521;-66
2022/01/14 18:37:19;;;;;;;29.13;10.43;;;;;;;;;;6133484;28;20258;-65
2022/01/14 18:40:41;;;;;;;26.47;14.13;;;;;;;;;;6134607;28;20224;-65
2022/01/14 18:44:04;;;;;;;35.67;21.20;;;;;;;;;;6132329;28;20231;-65
2022/01/14 18:47:25;;;;;;;34.03;19.80;;;;;;;;;;6130337;28;20641;-65
2022/01/14 18:50:46;;;;;;;26.17;7.77;;;;;;;;;;6123034;28;20584;-65
2022/01/14 18:54:07;;;;;;;28.90;14.43;;;;;;;;;;6109193;28;20240;-65
2022/01/14 18:57:29;;;;;;;32.00;12.03;;;;;;;;;;6133414;28;20255;-65
2022/01/14 19:00:50;;;;;;;29.33;11.67;;;;;;;;;;6130458;28;20236;-65
2022/01/14 19:04:11;;;;;;;26.73;9.93;;;;;;;;;;6130053;28;20610;-65
2022/01/14 19:07:31;;;;;;;19.20;7.70;;;;;;;;;;6114270;28;20231;-66
2022/01/14 19:10:52;;;;;;;26.40;12.23;;;;;;;;;;6128555;28;20223;-65
2022/01/14 19:14:15;;;;;;;26.93;12.77;;;;;;;;;;6128049;28;20770;-65
2022/01/14 19:17:36;;;;;;;30.97;14.50;;;;;;;;;;6130947;28;20254;-66
2022/01/14 19:20:56;;;;;;;17.30;8.30;;;;;;;;;;6129601;28;20540;-65
2022/01/14 19:24:17;;;;;;;18.30;9.93;;;;;;;;;;6118596;28;20239;-65
2022/01/14 19:27:40;;;;;;;24.33;9.27;;;;;;;;;;6132698;28;20239;-66
2022/01/14 19:31:03;;;;;;;23.80;8.10;;;;;;;;;;6126284;28;20254;-65
2022/01/14 19:34:23;;;;;;;30.87;15.93;;;;;;;;;;6129588;28;20232;-65
2022/01/14 19:37:44;;;;;;;25.60;8.70;;;;;;;;;;6122511;28;20227;-66
2022/01/14 19:41:06;;;;;;;18.17;6.50;;;;;;;;;;6122336;28;20227;-65
2022/01/14 19:44:26;;;;;;;21.97;7.30;;;;;;;;;;6132622;28;20628;-65
2022/01/14 19:47:48;;;;;;;59.17;38.53;;;;;;;;;;6130179;28;20239;-65
2022/01/14 19:51:09;;;;;;;44.60;24.43;;;;;;;;;;6133753;28;20240;-65
2022/01/14 19:54:30;;;;;;;42.47;26.30;;;;;;;;;;6127755;28;20267;-65
2022/01/14 19:57:51;;;;;;;40.10;18.97;;;;;;;;;;6132225;28;20693;-65
2022/01/14 20:01:11;;;;;;;40.17;19.43;;;;;;;;;;6129662;28;20254;-65
2022/01/14 20:04:33;;;;;;;38.43;21.13;;;;;;;;;;6130724;28;20249;-67
2022/01/14 20:07:54;;;;;;;31.83;13.63;;;;;;;;;;6134656;28;20256;-65
2022/01/14 20:11:14;;;;;;;25.67;13.63;;;;;;;;;;6131877;28;20310;-66
2022/01/14 20:14:34;;;;;;;26.03;16.43;;;;;;;;;;6133473;28;20263;-65
2022/01/14 20:17:55;;;;;;;23.23;11.00;;;;;;;;;;6120502;28;20621;-66